createdAt,value
2023-04-15T00:02:13.695Z,118.50425
2023-04-15T00:07:15.541Z,119.49858
2023-04-15T00:12:17.378Z,122.03468
2023-04-15T00:17:19.240Z,125.17647
2023-04-15T00:22:20.979Z,131.23404
2023-04-15T00:27:22.699Z,128.43114
2023-04-15T00:32:24.655Z,126.24852
2023-04-15T00:37:26.402Z,123.06977
2023-04-15T00:42:27.964Z,126.24852
2023-04-15T00:47:29.883Z,128.98498
2023-04-15T00:52:31.663Z,125.71091
2023-04-15T00:57:33.294Z,130.10272
2023-04-15T01:02:35.031Z,140.17834
2023-04-15T01:07:36.986Z,152.10811
2023-04-15T01:12:38.660Z,167.18841
2023-04-15T01:17:40.327Z,170.47059
2023-04-15T01:22:42.138Z,166.38267
2023-04-15T01:27:43.747Z,167.18841
2023-04-15T01:32:45.230Z,163.21708
2023-04-15T01:37:46.933Z,160.14035
2023-04-15T01:42:48.444Z,156.41379
2023-04-15T01:47:49.813Z,158.63415
2023-04-15T01:52:51.427Z,156.41379
2023-04-15T01:57:52.887Z,154.23891
2023-04-15T02:02:54.306Z,153.52381
2023-04-15T02:07:55.869Z,152.10811
2023-04-15T02:12:57.147Z,152.81356
2023-04-15T02:17:58.711Z,151.40741
2023-04-15T02:23:00.124Z,147.30033
2023-04-15T02:28:01.849Z,144
2023-04-15T02:33:03.456Z,144.65147
2023-04-15T02:38:05.119Z,142.07074
2023-04-15T02:43:06.645Z,145.30719
2023-04-15T02:48:08.362Z,140.17834
2023-04-15T02:53:10.271Z,141.4359
2023-04-15T02:58:11.819Z,139.55556
2023-04-15T03:03:13.602Z,138.32177
2023-04-15T03:08:15.383Z,140.17834
2023-04-15T03:13:16.830Z,137.10345
2023-04-15T03:18:18.387Z,135.30435
2023-04-15T03:23:20.110Z,144
2023-04-15T03:28:21.952Z,154.9589
2023-04-15T03:33:23.480Z,150.02007
2023-04-15T03:38:25.149Z,150.02007
2023-04-15T03:43:26.815Z,147.97351
2023-04-15T03:48:28.305Z,142.07074
2023-04-15T03:53:29.990Z,142.07074
2023-04-15T03:58:31.538Z,142.07074
2023-04-15T04:03:33.522Z,142.70968
2023-04-15T04:08:35.341Z,143.35275
2023-04-15T04:13:37.140Z,145.96721
2023-04-15T04:18:38.727Z,144
2023-04-15T04:23:40.502Z,142.70968
2023-04-15T04:28:42.219Z,149.33333
2023-04-15T04:33:43.860Z,146.63158
2023-04-15T04:38:45.390Z,149.33333
2023-04-15T04:43:46.698Z,150.02007
2023-04-15T04:48:47.945Z,149.33333
2023-04-15T04:53:49.462Z,152.81356
2023-04-15T04:58:50.698Z,146.63158
2023-04-15T05:03:52.004Z,146.63158
2023-04-15T05:08:53.411Z,140.80511
2023-04-15T05:13:54.641Z,137.10345
2023-04-15T05:18:56.111Z,138.32177
2023-04-15T05:23:57.633Z,134.71207
2023-04-15T05:28:59.108Z,128.43114
2023-04-15T05:34:01.073Z,126.24852
2023-04-15T05:39:03.063Z,126.78932
2023-04-15T05:44:04.980Z,132.3792
2023-04-15T05:49:06.723Z,130.66667
2023-04-15T05:54:08.433Z,126.78932
2023-04-15T05:59:09.780Z,130.66667
2023-04-15T06:04:11.176Z,135.90031
2023-04-15T06:09:12.668Z,145.96721
2023-04-15T06:14:14.120Z,135.90031
2023-04-15T06:19:15.428Z,142.07074
2023-04-15T06:24:16.942Z,137.71069
2023-04-15T06:29:18.256Z,145.30719
2023-04-15T06:34:19.602Z,146.63158
2023-04-15T06:39:21.597Z,144.65147
2023-04-15T06:44:22.847Z,135.30435
2023-04-15T06:49:24.202Z,142.07074
2023-04-15T06:54:25.799Z,141.4359
2023-04-15T06:59:27.212Z,142.70968
2023-04-15T07:04:28.497Z,143.35275
2023-04-15T07:09:29.930Z,144
2023-04-15T07:14:31.228Z,143.35275
2023-04-15T07:19:32.525Z,145.96721
2023-04-15T07:24:33.996Z,138.93671
2023-04-15T07:29:35.506Z,137.71069
2023-04-15T07:34:36.751Z,138.32177
2023-04-15T07:39:38.172Z,130.66667
2023-04-15T07:44:39.526Z,131.80488
2023-04-15T07:49:41.028Z,128.98498
2023-04-15T07:54:42.424Z,144.65147
2023-04-15T07:59:43.909Z,134.12346
2023-04-15T08:04:45.282Z,140.17834
2023-04-15T08:09:46.829Z,135.30435
2023-04-15T08:14:48.081Z,129.54217
2023-04-15T08:19:49.796Z,128.98498
2023-04-15T08:24:51.156Z,132.95706
2023-04-15T08:29:52.669Z,130.10272
2023-04-15T08:34:53.946Z,137.71069
2023-04-15T08:39:55.317Z,140.80511
2023-04-15T08:44:56.580Z,145.96721
2023-04-15T08:49:57.889Z,144.65147
2023-04-15T08:54:59.684Z,141.4359
2023-04-15T09:00:02.910Z,154.23891
2023-04-15T09:05:05.376Z,161.66784
2023-04-15T09:10:07.304Z,157.14879
2023-04-15T09:15:08.912Z,144.65147
2023-04-15T09:20:10.495Z,150.71141
2023-04-15T09:25:11.821Z,177.33333
2023-04-15T09:30:13.081Z,172.99628
2023-04-15T09:35:14.319Z,168.81752
2023-04-15T09:40:16.031Z,160.14035
2023-04-15T09:45:17.427Z,150.71141
2023-04-15T09:50:18.742Z,175.57895
2023-04-15T09:55:20.136Z,185.56863
2023-04-15T10:00:21.558Z,198.54545
2023-04-15T10:05:22.809Z,207.24786
2023-04-15T10:10:24.213Z,230.51163
2023-04-15T10:15:25.468Z,0
2023-04-15T10:20:27.288Z,0
2023-04-15T10:25:28.894Z,0
2023-04-15T10:30:30.170Z,0
2023-04-15T10:35:31.432Z,0
2023-04-15T10:40:32.783Z,0
2023-04-15T10:53:21.811Z,312.86228
2023-04-15T10:58:23.310Z,0
2023-04-15T11:03:24.666Z,0
2023-04-15T11:08:26.285Z,0
2023-04-15T11:13:27.682Z,0
2023-04-15T11:18:28.724Z,0
2023-04-15T11:23:30.205Z,0
2023-04-15T11:28:31.567Z,440.77419
2023-04-15T11:33:32.946Z,0
2023-04-15T11:38:34.575Z,0
2023-04-15T11:43:35.885Z,0
2023-04-15T11:48:37.512Z,0
2023-04-15T11:53:38.907Z,0
2023-04-15T11:58:40.268Z,0
2023-04-15T12:03:41.885Z,0
2023-04-15T12:08:43.760Z,0
2023-04-15T12:13:45.245Z,0
2023-04-15T12:18:46.846Z,0
2023-04-15T12:23:48.141Z,0
2023-04-15T12:28:49.648Z,0
2023-04-15T12:33:51.158Z,0
2023-04-15T12:38:52.691Z,0
2023-04-15T12:43:53.973Z,0
2023-04-15T12:48:55.299Z,0
2023-04-15T12:53:56.683Z,0
2023-04-15T12:58:57.948Z,0
2023-04-15T13:03:59.351Z,0
2023-04-15T13:09:00.864Z,0
2023-04-15T13:14:02.323Z,0
2023-04-15T13:19:03.943Z,0
2023-04-15T13:24:05.768Z,0
2023-04-15T13:29:07.336Z,0
2023-04-15T13:34:08.718Z,0
2023-04-15T13:39:09.960Z,0
2023-04-15T13:44:11.231Z,0
2023-04-15T13:49:12.689Z,0
2023-04-15T13:54:14.026Z,0
2023-04-15T13:59:15.494Z,0
2023-04-15T14:04:17.158Z,0
2023-04-15T14:09:18.708Z,0
2023-04-15T14:14:20.042Z,0
2023-04-15T14:19:21.446Z,0
2023-04-15T14:24:22.966Z,0
2023-04-15T14:29:24.272Z,0
2023-04-15T14:34:25.658Z,0
2023-04-15T14:39:26.918Z,0
2023-04-15T14:44:28.332Z,0
2023-04-15T14:49:29.612Z,0
2023-04-15T14:54:31.166Z,0
2023-04-15T14:59:32.586Z,0
2023-04-15T15:04:33.989Z,0
2023-04-15T15:09:35.837Z,0
2023-04-15T15:14:37.188Z,0
2023-04-15T15:19:38.784Z,0
2023-04-15T15:24:40.420Z,0
2023-04-15T15:29:41.752Z,0
2023-04-15T15:34:43.341Z,280.61202
2023-04-15T15:39:44.635Z,290.06742
2023-04-15T15:44:45.955Z,0
2023-04-15T15:49:47.352Z,286.22222
2023-04-15T15:54:48.844Z,282.46154
2023-04-15T15:59:53.095Z,248.9505
2023-04-15T16:04:59.040Z,202.82353
2023-04-15T16:10:00.539Z,172.14815
2023-04-15T16:15:01.853Z,180.01533
2023-04-15T16:20:03.546Z,180.92308
2023-04-15T16:25:05.129Z,176.45283
2023-04-15T16:30:06.447Z,162.43972
2023-04-15T16:35:08.033Z,176.45283
2023-04-15T16:40:09.388Z,180.92308
2023-04-15T16:45:10.768Z,168.81752
2023-04-15T16:50:12.147Z,152.81356
2023-04-15T16:55:13.420Z,138.32177
2023-04-15T17:00:14.844Z,153.52381
2023-04-15T17:05:16.534Z,142.07074
2023-04-15T17:10:18.196Z,162.43972
2023-04-15T17:15:19.778Z,158.63415
2023-04-15T17:20:21.431Z,170.47059
2023-04-15T17:25:23.212Z,169.64103
2023-04-15T17:30:24.611Z,150.02007
2023-04-15T17:35:26.265Z,152.10811
2023-04-15T17:40:27.753Z,174.71161
2023-04-15T17:45:29.165Z,160.90141
2023-04-15T17:50:30.432Z,170.47059
2023-04-15T17:55:31.968Z,194.4065
2023-04-15T18:00:33.301Z,177.33333
2023-04-15T18:05:34.889Z,183.68872
2023-04-15T18:10:36.160Z,264.83333
2023-04-15T18:15:37.438Z,248.9505
2023-04-15T18:20:38.880Z,194.4065
2023-04-15T18:25:40.708Z,171.30627
2023-04-15T18:30:42.310Z,185.56863
2023-04-15T18:35:43.692Z,179.1145
2023-04-15T18:40:45.280Z,170.47059
2023-04-15T18:45:46.723Z,180.92308
2023-04-15T18:50:48.329Z,164
2023-04-15T18:55:49.919Z,157.14879
2023-04-15T19:00:51.450Z,157.88889
2023-04-15T19:05:52.995Z,164.78853
2023-04-15T19:10:54.600Z,140.17834
2023-04-15T19:15:56.216Z,139.55556
2023-04-15T19:20:57.866Z,131.23404
2023-04-15T19:25:59.566Z,138.32177
2023-04-15T19:31:01.185Z,129.54217
2023-04-15T19:36:02.801Z,129.54217
2023-04-15T19:41:04.307Z,130.66667
2023-04-15T19:46:05.629Z,126.24852
2023-04-15T19:51:07.466Z,126.24852
2023-04-15T19:56:09.373Z,125.17647
2023-04-15T20:01:10.883Z,121.01149
2023-04-15T20:06:12.559Z,122.03468
2023-04-15T20:11:15.108Z,123.06977
2023-04-15T20:16:16.737Z,124.64516
2023-04-15T20:21:18.113Z,119
2023-04-15T20:26:19.403Z,122.55072
2023-04-15T20:31:21.062Z,118.0113
2023-04-15T20:36:22.753Z,116.06704
2023-04-15T20:41:24.358Z,119
2023-04-15T20:46:27.327Z,115.11111
2023-04-15T20:51:29.150Z,113.69697
2023-04-15T20:56:30.579Z,115.58774
2023-04-15T21:01:31.865Z,117.03371
2023-04-15T21:06:33.258Z,115.58774
2023-04-15T21:11:46.387Z,114.16575
2023-04-15T21:16:58.997Z,111.84741
2023-04-15T21:22:00.556Z,111.84741
2023-04-15T21:27:02.283Z,114.63712
2023-04-15T21:32:03.932Z,116.06704
2023-04-15T21:37:05.545Z,116.06704
2023-04-15T21:42:07.183Z,113.69697
2023-04-15T21:47:08.858Z,116.06704
2023-04-15T21:52:10.778Z,122.55072
2023-04-15T21:57:12.398Z,140.17834
2023-04-15T22:02:14.059Z,155.68385
2023-04-15T22:07:15.748Z,157.88889
2023-04-15T22:12:17.350Z,166.38267
2023-04-15T22:17:19.026Z,162.43972
2023-04-15T22:22:20.655Z,161.66784
2023-04-15T22:27:28.000Z,154.23891
2023-04-15T22:32:29.290Z,156.41379
2023-04-15T22:37:30.605Z,152.81356
2023-04-15T22:42:32.188Z,152.10811
2023-04-15T22:47:33.745Z,147.30033
2023-04-15T22:52:35.154Z,166.38267
2023-04-15T22:57:36.369Z,157.88889
2023-04-15T23:02:37.857Z,153.52381
2023-04-15T23:07:39.340Z,160.14035
2023-04-15T23:12:40.792Z,147.30033
2023-04-15T23:17:42.135Z,151.40741
2023-04-15T23:22:43.664Z,148.65116
2023-04-15T23:27:44.961Z,145.30719
2023-04-15T23:32:46.508Z,143.35275
2023-04-15T23:37:47.859Z,139.55556
2023-04-15T23:42:49.358Z,138.32177
2023-04-15T23:47:50.949Z,134.71207
2023-04-15T23:52:52.342Z,131.23404
2023-04-15T23:57:53.825Z,126.78932
